マヘ島 の空港の天気 - METARとTAF

セーシェル国際空港 ( FSIA / SEZ ) - セーシェル マヘ島
飛行場実況気象(Metar)
観測時間10/19 22:00 SCT (10/19 18:00 UTC)
風向・風速西 3m/s
視程10km以上
天気現象
全天の4割程度の雲 雲底高度 610m
気温28℃
湿度74%
気圧1012hPa
METARFSIA 191800Z 26005KT 200V290 9999 SCT020 28/23 Q1012 NOSIG
過去の天気等 Google飛行場航空写真 Wunderground天気予報

過去48時間のMETAR

飛行場予報(TAF)
発表時間: 10/19 21:02 SCT (10/19 17:02 UTC)
予報対象時間: 19日22時 SCT ~ 20日22時 SCT
風向・風速南 4m/s
視程10km以上
全天の4割程度の雲 雲底高度 610m
19日22時 SCT ~ 20日7時 SCT に一時的に
視程8000m
天気現象弱いしゅう雨
少しの雲 雲底高度 370m
少しの積乱雲 雲底高度 460m
全天の8割程度の雲 雲底高度 550m
20日6時 SCT ~ 20日8時 SCT に徐々に
風向・風速不定 2m/s
20日10時 SCT ~ 20日18時 SCT に一時的に
視程5000m
天気現象弱い雷雨
少しの雲 雲底高度 300m
少しの積乱雲 雲底高度 400m
全天の8割程度の雲 雲底高度 490m
TAF FSIA 191702Z 1918/2018 18007KT 9999 SCT020
TEMPO 1918/2003 8000 -SHRA FEW012 FEW015CB BKN018
BECMG 2002/2004 VRB03KT
TEMPO 2006/2014 5000 -TSRA FEW010 FEW013CB BKN016